createdAt,value
2022-07-31T00:00:26.087Z,81.06
2022-07-31T00:02:53.270Z,80.54
2022-07-31T00:05:20.520Z,80.93
2022-07-31T00:07:47.623Z,80.92
2022-07-31T00:10:14.915Z,81.36
2022-07-31T00:12:42.056Z,80.93
2022-07-31T00:15:11.090Z,80.82
2022-07-31T00:17:39.723Z,80.74
2022-07-31T00:20:08.175Z,79.94
2022-07-31T00:22:35.658Z,80.42
2022-07-31T00:25:02.827Z,80.23
2022-07-31T00:27:30.946Z,79.64
2022-07-31T00:29:58.230Z,80.03
2022-07-31T00:32:25.563Z,79.49
2022-07-31T00:34:53.063Z,80.30
2022-07-31T00:37:20.214Z,80.22
2022-07-31T00:39:47.307Z,80.60
2022-07-31T00:42:22.163Z,79.89
2022-07-31T00:44:51.189Z,80.55
2022-07-31T00:47:23.778Z,80.78
2022-07-31T00:49:53.508Z,80.92
2022-07-31T00:52:21.277Z,81.44
2022-07-31T00:54:48.735Z,81.47
2022-07-31T00:57:16.123Z,81.14
2022-07-31T00:59:43.983Z,80.98
2022-07-31T01:02:11.946Z,80.91
2022-07-31T01:04:41.520Z,79.97
2022-07-31T01:07:09.545Z,79.42
2022-07-31T01:09:36.922Z,80.10
2022-07-31T01:12:16.516Z,80.36
2022-07-31T01:14:55.586Z,80.31
2022-07-31T01:17:25.023Z,80.79
2022-07-31T01:19:53.545Z,81.40
2022-07-31T01:22:44.004Z,82.02
2022-07-31T01:25:23.545Z,81.97
2022-07-31T01:28:10.239Z,81.40
2022-07-31T01:31:26.731Z,81.12
2022-07-31T01:34:05.777Z,81.71
2022-07-31T01:36:37.114Z,81.05
2022-07-31T01:39:05.257Z,81.03
2022-07-31T01:41:38.534Z,81.11
2022-07-31T01:44:07.872Z,80.98
2022-07-31T01:46:45.005Z,80.71
2022-07-31T01:49:13.987Z,80.79
2022-07-31T01:51:45.282Z,80.17
2022-07-31T01:54:14.773Z,79.00
2022-07-31T01:56:44.209Z,78.90
2022-07-31T01:59:20.124Z,78.66
2022-07-31T02:02:10.435Z,79.17
2022-07-31T02:04:39.407Z,79.22
2022-07-31T02:07:08.424Z,79.13
2022-07-31T02:09:37.902Z,79.26
2022-07-31T02:12:32.278Z,79.35
2022-07-31T02:15:24.287Z,79.12
2022-07-31T02:17:52.889Z,78.87
2022-07-31T02:20:24.731Z,79.22
2022-07-31T02:22:57.542Z,79.24
2022-07-31T02:25:27.144Z,79.91
2022-07-31T02:27:59.199Z,80.23
2022-07-31T02:30:38.858Z,80.74
2022-07-31T02:33:18.296Z,82.02
2022-07-31T02:35:49.243Z,82.72
2022-07-31T02:38:23.373Z,83.29
2022-07-31T02:40:56.957Z,83.38
2022-07-31T02:43:26.911Z,83.18
2022-07-31T02:45:57.543Z,84.22
2022-07-31T02:48:26.439Z,84.69
2022-07-31T02:50:56.370Z,85.71
2022-07-31T02:53:24.129Z,85.18
2022-07-31T02:55:54.169Z,85.16
2022-07-31T02:58:21.493Z,85.10
2022-07-31T03:00:57.925Z,84.97
2022-07-31T03:03:25.398Z,83.88
2022-07-31T03:05:52.625Z,83.80
2022-07-31T03:08:20.050Z,83.22
2022-07-31T03:10:51.815Z,83.62
2022-07-31T03:13:22.737Z,84.03
2022-07-31T03:15:51.867Z,84.91
2022-07-31T03:18:21.908Z,84.74
2022-07-31T03:20:52.106Z,84.68
2022-07-31T03:23:22.490Z,84.43
2022-07-31T03:25:58.443Z,84.79
2022-07-31T03:28:25.919Z,85.10
2022-07-31T03:30:56.550Z,85.41
2022-07-31T03:33:26.858Z,85.82
2022-07-31T03:35:54.446Z,86.00
2022-07-31T03:38:42.371Z,86.46
2022-07-31T03:41:11.393Z,86.46
2022-07-31T03:43:46.873Z,86.69
2022-07-31T03:46:18.739Z,86.55
2022-07-31T03:48:46.756Z,86.83
2022-07-31T03:51:15.689Z,87.12
2022-07-31T03:53:44.120Z,87.14
2022-07-31T03:56:24.390Z,87.02
2022-07-31T03:58:52.732Z,87.10
2022-07-31T04:01:22.233Z,87.15
2022-07-31T04:03:59.551Z,87.58
2022-07-31T04:06:50.236Z,87.91
2022-07-31T04:09:18.954Z,87.62
2022-07-31T04:11:48.711Z,87.43
2022-07-31T04:14:16.879Z,86.65
2022-07-31T04:16:44.395Z,87.03
2022-07-31T04:19:11.504Z,86.99
2022-07-31T04:21:39.230Z,86.94
2022-07-31T04:24:07.799Z,87.00
2022-07-31T04:27:12.675Z,87.42
2022-07-31T04:29:45.797Z,87.58
2022-07-31T04:32:13.323Z,86.76
2022-07-31T04:34:52.687Z,86.48
2022-07-31T04:37:20.711Z,86.72
2022-07-31T04:39:48.147Z,86.40
2022-07-31T04:42:16.108Z,86.30
2022-07-31T04:44:43.643Z,86.52
2022-07-31T04:47:10.785Z,86.25
2022-07-31T04:49:42.910Z,86.29
2022-07-31T04:52:15.078Z,86.73
2022-07-31T04:54:45.271Z,87.01
2022-07-31T04:57:16.405Z,87.44
2022-07-31T04:59:58.628Z,87.17
2022-07-31T05:02:31.619Z,87.71
2022-07-31T05:04:59.335Z,87.54
2022-07-31T05:07:38.214Z,88.02
2022-07-31T05:10:31.950Z,88.42
2022-07-31T05:12:59.622Z,88.24
2022-07-31T05:15:28.209Z,88.15
2022-07-31T05:17:57.060Z,87.95
2022-07-31T05:20:42.710Z,87.53
2022-07-31T05:23:33.427Z,88.25
2022-07-31T05:26:07.622Z,89.94
2022-07-31T05:28:36.502Z,91.12
2022-07-31T05:31:04.101Z,91.87
2022-07-31T05:33:31.570Z,92.99
2022-07-31T05:35:59.057Z,94.13
2022-07-31T05:38:27.459Z,95.26
2022-07-31T05:41:13.970Z,96.02
2022-07-31T05:44:00.252Z,95.64
2022-07-31T05:46:32.863Z,95.45
2022-07-31T05:49:01.660Z,94.32
2022-07-31T05:51:30.739Z,94.05
2022-07-31T05:53:58.238Z,93.16
2022-07-31T05:56:58.156Z,94.20
2022-07-31T05:59:35.526Z,93.76
2022-07-31T06:02:04.392Z,92.81
2022-07-31T06:04:42.354Z,92.48
2022-07-31T06:07:09.876Z,92.05
2022-07-31T06:09:37.435Z,92.73
2022-07-31T06:12:05.329Z,92.27
2022-07-31T06:14:33.024Z,91.30
2022-07-31T06:17:17.779Z,82.58
2022-07-31T06:19:45.182Z,82.34
2022-07-31T06:22:13.499Z,82.56
2022-07-31T06:24:43.407Z,82.13
2022-07-31T06:27:11.364Z,81.45
2022-07-31T06:29:50.541Z,80.47
2022-07-31T06:32:18.790Z,81.42
2022-07-31T06:34:46.332Z,80.08
2022-07-31T06:37:15.385Z,80.63
2022-07-31T06:39:54.639Z,79.24
2022-07-31T06:42:42.396Z,79.77
2022-07-31T06:45:29.887Z,79.46
2022-07-31T06:48:21.678Z,78.62
2022-07-31T06:51:30.247Z,78.80
2022-07-31T06:53:48.804Z,77.36
2022-07-31T06:56:15.869Z,77.16
2022-07-31T06:58:43.157Z,78.07
2022-07-31T07:01:10.548Z,77.04
2022-07-31T07:03:37.644Z,76.71
2022-07-31T07:06:05.231Z,76.17
2022-07-31T07:08:33.293Z,74.86
2022-07-31T07:11:00.371Z,74.28
2022-07-31T07:13:45.192Z,73.65
2022-07-31T07:16:16.188Z,73.46
2022-07-31T07:18:45.034Z,72.42
2022-07-31T07:21:12.459Z,71.62
2022-07-31T07:23:40.969Z,70.97
2022-07-31T07:26:28.771Z,69.43
2022-07-31T07:28:56.459Z,70.48
2022-07-31T07:31:24.143Z,68.88
2022-07-31T07:33:52.083Z,69.48
2022-07-31T07:36:24.796Z,68.61
2022-07-31T07:39:18.869Z,69.79
2022-07-31T07:41:46.298Z,68.42
2022-07-31T07:44:13.688Z,67.98
2022-07-31T07:46:41.330Z,66.74
2022-07-31T07:49:11.930Z,67.65
2022-07-31T07:51:58.863Z,65.13
2022-07-31T07:54:42.969Z,66.42
2022-07-31T07:57:22.797Z,65.12
2022-07-31T08:00:11.392Z,66.15
2022-07-31T08:03:47.648Z,64.55
2022-07-31T08:05:41.603Z,64.96
2022-07-31T08:08:09.815Z,66.33
2022-07-31T08:10:41.406Z,65.38
2022-07-31T08:13:12.243Z,65.77
2022-07-31T08:15:58.263Z,64.88
2022-07-31T08:18:31.883Z,63.43
2022-07-31T08:20:59.601Z,63.28
2022-07-31T08:23:27.985Z,63.26
2022-07-31T08:25:58.250Z,63.81
2022-07-31T08:28:26.765Z,63.52
2022-07-31T08:30:54.437Z,64.05
2022-07-31T08:33:23.388Z,62.76
2022-07-31T08:35:55.246Z,62.87
2022-07-31T08:38:22.657Z,61.90
2022-07-31T08:41:19.012Z,62.43
2022-07-31T08:44:02.370Z,60.82
2022-07-31T08:46:37.814Z,60.87
2022-07-31T08:49:06.696Z,62.38
2022-07-31T08:51:50.928Z,63.50
2022-07-31T08:54:55.002Z,65.03
2022-07-31T08:57:24.420Z,66.13
2022-07-31T08:59:52.826Z,68.12
2022-07-31T09:02:20.160Z,69.76
2022-07-31T09:05:17.211Z,70.23
2022-07-31T09:07:44.427Z,70.70
2022-07-31T09:10:22.382Z,70.11
2022-07-31T09:12:50.975Z,71.12
2022-07-31T09:15:21.400Z,71.48
2022-07-31T09:17:48.714Z,71.98
2022-07-31T09:20:24.050Z,71.86
2022-07-31T09:23:10.862Z,70.02
2022-07-31T09:26:04.436Z,66.50
2022-07-31T09:28:53.371Z,66.04
2022-07-31T09:31:20.738Z,63.68
2022-07-31T09:34:30.900Z,64.01
2022-07-31T09:37:25.265Z,64.17
2022-07-31T09:40:11.038Z,59.64
2022-07-31T09:43:24.741Z,59.62
2022-07-31T09:46:01.306Z,58.12
2022-07-31T09:48:29.485Z,56.04
2022-07-31T09:51:01.873Z,54.67
2022-07-31T09:53:47.586Z,55.10
2022-07-31T09:56:34.127Z,55.43
2022-07-31T09:59:02.341Z,54.84
2022-07-31T10:01:33.390Z,55.04
2022-07-31T10:04:03.473Z,53.85
2022-07-31T10:06:34.360Z,53.14
2022-07-31T10:09:04.576Z,53.40
2022-07-31T10:12:02.411Z,53.70
2022-07-31T10:14:32.963Z,54.08
2022-07-31T10:17:05.062Z,54.86
2022-07-31T10:19:58.201Z,54.60
2022-07-31T10:22:49.552Z,54.48
2022-07-31T10:25:27.705Z,54.46
2022-07-31T10:27:57.386Z,55.97
2022-07-31T10:30:28.063Z,56.25
2022-07-31T10:32:58.812Z,55.00
2022-07-31T10:35:27.264Z,55.90
2022-07-31T10:38:38.393Z,56.50
2022-07-31T10:41:42.309Z,55.21
2022-07-31T10:44:46.064Z,55.08
2022-07-31T10:47:22.364Z,56.65
2022-07-31T10:50:19.848Z,55.30
2022-07-31T10:53:13.553Z,54.51
2022-07-31T10:56:05.972Z,55.20
2022-07-31T10:58:59.574Z,55.99
2022-07-31T11:01:55.240Z,55.44
2022-07-31T11:04:42.935Z,55.73
2022-07-31T11:07:20.090Z,55.41
2022-07-31T11:10:21.251Z,56.25
2022-07-31T11:13:11.971Z,56.21
2022-07-31T11:16:03.088Z,55.08
2022-07-31T11:22:31.771Z,53.28
2022-07-31T11:25:00.929Z,53.62
2022-07-31T11:27:33.154Z,52.27
2022-07-31T11:30:13.138Z,51.88
2022-07-31T11:32:47.612Z,52.65
2022-07-31T11:35:25.597Z,52.37
2022-07-31T11:37:57.936Z,52.20
2022-07-31T11:40:27.471Z,52.00
2022-07-31T11:43:24.328Z,50.91
2022-07-31T11:45:51.465Z,51.33
2022-07-31T11:48:20.744Z,51.03
2022-07-31T11:50:49.836Z,50.94
2022-07-31T11:53:18.969Z,50.73
2022-07-31T11:55:49.259Z,50.47
2022-07-31T11:58:18.018Z,50.44
2022-07-31T12:00:56.961Z,51.39
2022-07-31T12:03:37.006Z,49.60
2022-07-31T12:06:06.535Z,50.20
2022-07-31T12:08:35.507Z,49.09
2022-07-31T12:11:04.511Z,49.29
2022-07-31T12:13:32.580Z,49.67
2022-07-31T12:16:19.921Z,50.40
2022-07-31T12:18:54.035Z,49.57
2022-07-31T12:21:30.242Z,49.65
2022-07-31T12:23:58.424Z,49.15
2022-07-31T12:26:31.227Z,49.37
2022-07-31T12:29:09.456Z,49.97
2022-07-31T12:31:45.902Z,50.63
2022-07-31T12:34:25.559Z,50.65
2022-07-31T12:37:05.215Z,50.76
2022-07-31T12:40:00.155Z,51.02
2022-07-31T12:42:36.447Z,50.76
2022-07-31T12:45:19.606Z,50.97
2022-07-31T12:47:51.351Z,50.86
2022-07-31T12:50:25.040Z,50.35
2022-07-31T12:52:53.283Z,48.82
2022-07-31T12:55:20.951Z,49.22
2022-07-31T12:57:51.402Z,47.65
2022-07-31T13:00:23.109Z,47.38
2022-07-31T13:02:51.292Z,47.82
2022-07-31T13:05:19.150Z,47.92
2022-07-31T13:07:46.502Z,47.88
2022-07-31T13:10:21.181Z,47.65
2022-07-31T13:12:53.314Z,48.01
2022-07-31T13:15:23.512Z,46.84
2022-07-31T13:17:51.289Z,47.85
2022-07-31T13:20:19.269Z,47.63
2022-07-31T13:22:47.070Z,45.76
2022-07-31T13:25:14.898Z,46.32
2022-07-31T13:27:42.247Z,45.23
2022-07-31T13:30:10.971Z,45.38
2022-07-31T13:32:38.537Z,46.26
2022-07-31T13:35:19.735Z,45.34
2022-07-31T13:37:53.978Z,44.83
2022-07-31T13:40:41.478Z,45.21
2022-07-31T13:43:13.223Z,45.32
2022-07-31T13:45:40.508Z,45.96
2022-07-31T13:48:09.550Z,46.10
2022-07-31T13:50:41.485Z,46.12
2022-07-31T13:53:09.624Z,46.84
2022-07-31T13:55:37.583Z,45.65
2022-07-31T13:58:05.245Z,46.36
2022-07-31T14:00:32.769Z,45.32
2022-07-31T14:03:00.244Z,45.19
2022-07-31T14:05:28.075Z,45.43
2022-07-31T14:07:56.273Z,44.73
2022-07-31T14:10:43.877Z,44.15
2022-07-31T14:13:16.413Z,45.01
2022-07-31T14:15:43.670Z,44.48
2022-07-31T14:18:11.179Z,44.94
2022-07-31T14:20:38.794Z,44.78
2022-07-31T14:23:09.538Z,44.21
2022-07-31T14:25:38.631Z,44.62
2022-07-31T14:28:07.142Z,43.80
2022-07-31T14:30:35.093Z,44.31
2022-07-31T14:33:02.592Z,43.99
2022-07-31T14:35:29.823Z,43.44
2022-07-31T14:38:02.039Z,44.00
2022-07-31T14:40:31.212Z,43.50
2022-07-31T14:42:59.182Z,43.69
2022-07-31T14:45:26.888Z,43.81
2022-07-31T14:47:55.300Z,43.81
2022-07-31T14:50:23.625Z,43.35
2022-07-31T14:52:51.054Z,43.78
2022-07-31T14:55:19.722Z,43.95
2022-07-31T14:57:47.104Z,44.13
2022-07-31T15:00:15.671Z,43.75
2022-07-31T15:02:45.119Z,44.09
2022-07-31T15:06:49.342Z,44.54
2022-07-31T15:08:02.543Z,44.59
2022-07-31T15:10:31.575Z,45.15
2022-07-31T15:12:59.216Z,44.98
2022-07-31T15:15:28.533Z,44.88
2022-07-31T15:17:56.612Z,44.82
2022-07-31T15:20:28.840Z,44.32
2022-07-31T15:23:01.107Z,44.44
2022-07-31T15:25:28.897Z,44.71
2022-07-31T15:27:56.503Z,45.00
2022-07-31T15:30:23.804Z,44.85
2022-07-31T15:32:52.596Z,44.79
2022-07-31T15:35:19.898Z,43.86
2022-07-31T15:37:47.301Z,44.24
2022-07-31T15:40:15.752Z,44.59
2022-07-31T15:42:45.011Z,44.86
2022-07-31T15:45:14.957Z,45.80
2022-07-31T15:47:43.259Z,45.04
2022-07-31T15:50:12.770Z,44.71
2022-07-31T15:52:40.680Z,44.50
2022-07-31T15:55:09.101Z,43.95
2022-07-31T15:57:50.694Z,43.20
2022-07-31T16:00:18.666Z,42.59
2022-07-31T16:02:45.980Z,41.16
2022-07-31T16:05:21.928Z,41.15
2022-07-31T16:08:28.732Z,40.18
2022-07-31T16:10:54.650Z,40.19
2022-07-31T16:13:23.714Z,40.01
2022-07-31T16:15:51.670Z,39.41
2022-07-31T16:18:19.166Z,40.10
2022-07-31T16:20:47.138Z,38.93
2022-07-31T16:23:17.750Z,38.85
2022-07-31T16:25:45.181Z,38.40
2022-07-31T16:28:12.611Z,38.49
2022-07-31T16:30:50.867Z,39.43
2022-07-31T16:33:18.541Z,39.40
2022-07-31T16:35:45.931Z,39.59
2022-07-31T16:38:13.703Z,39.63
2022-07-31T16:40:41.074Z,39.68
2022-07-31T16:43:50.154Z,40.07
2022-07-31T16:45:57.117Z,40.52
2022-07-31T16:48:24.480Z,40.67
2022-07-31T16:50:53.216Z,41.36
2022-07-31T16:54:10.755Z,41.26
2022-07-31T16:56:12.086Z,41.47
2022-07-31T16:58:39.690Z,41.96
2022-07-31T17:01:57.813Z,41.68
2022-07-31T17:03:59.288Z,42.26
2022-07-31T17:06:37.925Z,42.37
2022-07-31T17:09:18.389Z,42.04
2022-07-31T17:11:51.224Z,42.38
2022-07-31T17:14:19.634Z,42.80
2022-07-31T17:16:50.463Z,42.93
2022-07-31T17:19:41.851Z,43.41
2022-07-31T17:22:08.033Z,43.77
2022-07-31T17:24:37.618Z,44.00
2022-07-31T17:27:07.884Z,44.05
2022-07-31T17:30:00.174Z,44.31
2022-07-31T17:32:27.944Z,44.30
2022-07-31T17:34:55.387Z,44.91
2022-07-31T17:37:24.774Z,44.75
2022-07-31T17:39:57.785Z,45.30
2022-07-31T17:42:29.752Z,45.29
2022-07-31T17:44:59.007Z,45.14
2022-07-31T17:47:30.207Z,45.34
2022-07-31T17:49:59.704Z,46.05
2022-07-31T17:52:34.231Z,45.87
2022-07-31T17:55:01.949Z,46.15
2022-07-31T17:57:30.868Z,46.20
2022-07-31T18:00:07.600Z,46.78
2022-07-31T18:02:34.881Z,47.55
2022-07-31T18:05:02.164Z,47.30
2022-07-31T18:07:31.125Z,47.74
2022-07-31T18:09:58.522Z,47.27
2022-07-31T18:13:02.872Z,47.68
2022-07-31T18:15:34.521Z,48.42
2022-07-31T18:18:07.508Z,48.48
2022-07-31T18:20:34.921Z,49.12
2022-07-31T18:23:02.111Z,48.91
2022-07-31T18:25:29.293Z,49.19
2022-07-31T18:27:57.310Z,48.80
2022-07-31T18:30:24.639Z,48.98
2022-07-31T18:32:57.722Z,49.76
2022-07-31T18:35:24.947Z,50.26
2022-07-31T18:37:52.232Z,50.45
2022-07-31T18:40:19.539Z,50.30
2022-07-31T18:42:46.849Z,50.64
2022-07-31T18:45:13.986Z,50.24
2022-07-31T18:47:41.436Z,50.18
2022-07-31T18:51:02.348Z,50.37
2022-07-31T18:52:57.481Z,51.20
2022-07-31T18:55:24.894Z,51.83
2022-07-31T18:57:52.298Z,51.66
2022-07-31T19:00:19.586Z,51.93
2022-07-31T19:02:46.733Z,52.46
2022-07-31T19:05:21.386Z,52.52
2022-07-31T19:07:49.455Z,52.47
2022-07-31T19:10:29.708Z,52.52
2022-07-31T19:12:59.855Z,53.23
2022-07-31T19:15:27.182Z,53.51
2022-07-31T19:17:58.434Z,53.60
2022-07-31T19:20:56.784Z,53.36
2022-07-31T19:23:16.167Z,53.60
2022-07-31T19:25:59.569Z,53.38
2022-07-31T19:28:32.383Z,53.67
2022-07-31T19:31:02.609Z,53.64
2022-07-31T19:33:31.577Z,54.31
2022-07-31T19:39:08.989Z,54.59
2022-07-31T19:41:36.268Z,53.98
2022-07-31T19:44:04.240Z,53.69
2022-07-31T19:46:31.409Z,53.28
2022-07-31T19:48:59.588Z,53.32
2022-07-31T19:51:26.788Z,53.04
2022-07-31T19:53:53.966Z,53.00
2022-07-31T19:56:21.325Z,53.50
2022-07-31T19:58:49.262Z,53.79
2022-07-31T20:01:19.254Z,53.69
2022-07-31T20:03:46.777Z,54.22
2022-07-31T20:06:14.043Z,53.65
2022-07-31T20:08:41.955Z,54.06
2022-07-31T20:11:09.451Z,53.63
2022-07-31T20:13:43.407Z,53.42
2022-07-31T20:16:10.732Z,53.21
2022-07-31T20:18:38.199Z,53.55
2022-07-31T20:21:08.093Z,53.38
2022-07-31T20:23:48.891Z,52.93
2022-07-31T20:26:17.717Z,52.93
2022-07-31T20:28:45.360Z,53.33
2022-07-31T20:31:18.423Z,53.48
2022-07-31T20:33:57.502Z,53.74
2022-07-31T20:36:26.743Z,53.76
2022-07-31T20:38:54.769Z,53.64
2022-07-31T20:41:21.974Z,54.25
2022-07-31T20:43:49.188Z,54.30
2022-07-31T20:46:18.231Z,53.92
2022-07-31T20:48:45.517Z,54.08
2022-07-31T20:51:19.374Z,53.97
2022-07-31T20:53:48.210Z,53.81
2022-07-31T20:56:16.094Z,53.75
2022-07-31T20:58:46.251Z,53.73
2022-07-31T21:01:20.282Z,53.89
2022-07-31T21:03:47.792Z,53.47
2022-07-31T21:06:15.256Z,53.81
2022-07-31T21:08:42.726Z,53.83
2022-07-31T21:11:10.046Z,53.87
2022-07-31T21:13:38.154Z,54.17
2022-07-31T21:16:05.685Z,54.06
2022-07-31T21:18:34.888Z,54.16
2022-07-31T21:21:03.203Z,54.22
2022-07-31T21:23:30.408Z,54.20
2022-07-31T21:25:58.992Z,54.25
2022-07-31T21:28:27.881Z,54.25
2022-07-31T21:30:56.498Z,54.78
2022-07-31T21:33:25.751Z,54.99
2022-07-31T21:35:53.824Z,55.33
2022-07-31T21:38:21.802Z,55.21
2022-07-31T21:40:49.530Z,54.82
2022-07-31T21:43:22.106Z,54.56
2022-07-31T21:45:57.716Z,54.31
2022-07-31T21:48:31.166Z,54.15
2022-07-31T21:51:00.134Z,54.65
2022-07-31T21:53:27.552Z,54.15
2022-07-31T21:55:54.713Z,54.54
2022-07-31T21:58:22.015Z,54.72
2022-07-31T22:00:49.503Z,55.05
2022-07-31T22:03:16.812Z,54.81
2022-07-31T22:06:02.268Z,54.34
2022-07-31T22:08:29.444Z,54.32
2022-07-31T22:10:56.520Z,53.99
2022-07-31T22:13:23.938Z,53.77
2022-07-31T22:15:58.573Z,53.93
2022-07-31T22:18:36.491Z,53.87
2022-07-31T22:21:07.418Z,53.67
2022-07-31T22:23:35.727Z,53.88
2022-07-31T22:26:03.335Z,54.21
2022-07-31T22:28:31.379Z,53.74
2022-07-31T22:30:58.994Z,53.32
2022-07-31T22:33:26.388Z,53.05
2022-07-31T22:35:59.547Z,53.04
2022-07-31T22:38:30.067Z,53.26
2022-07-31T22:40:59.123Z,52.79
2022-07-31T22:44:13.951Z,53.04
2022-07-31T22:46:14.373Z,52.77
2022-07-31T22:48:41.934Z,53.18
2022-07-31T22:51:10.837Z,52.75
2022-07-31T22:53:42.181Z,52.95
2022-07-31T22:56:09.302Z,53.28
2022-07-31T22:58:36.582Z,52.97
2022-07-31T23:01:04.003Z,52.86
2022-07-31T23:03:31.241Z,52.93
2022-07-31T23:06:27.974Z,53.05
2022-07-31T23:08:45.878Z,53.42
2022-07-31T23:11:18.195Z,53.59
2022-07-31T23:13:45.273Z,53.55
2022-07-31T23:16:12.464Z,53.52
2022-07-31T23:18:39.746Z,53.86
2022-07-31T23:21:08.207Z,53.90
2022-07-31T23:23:35.785Z,54.23
2022-07-31T23:26:02.996Z,54.90
2022-07-31T23:28:30.156Z,55.29
2022-07-31T23:30:57.517Z,55.86
2022-07-31T23:33:24.728Z,56.16
2022-07-31T23:35:52.073Z,56.18
2022-07-31T23:38:19.498Z,56.54
2022-07-31T23:40:46.777Z,56.85
2022-07-31T23:43:17.071Z,56.86
2022-07-31T23:45:47.283Z,56.57
2022-07-31T23:48:15.227Z,56.43
2022-07-31T23:50:44.298Z,56.79
2022-07-31T23:53:11.470Z,56.69
2022-07-31T23:55:41.734Z,56.87
2022-07-31T23:58:11.518Z,56.71
